Marmora, Canada
Current Conditions -  °F | °C
As of 9:00 AM on Thursday 30 Oct 2014 (Local Time) from CYTR Reporting Station
Few Clouds Few Clouds  
Wind Chill: 36°   Ceiling: Unl
Heat Index: 39°   Visibility: 15mi
Dew Point: 36°   Wind: 5mph
Humidity: 87%   Direction: 310°NW
Pressure: 30.05"   Gusts: NA
Location:  44.48°N, 77.68°W
Report Text: CYTR 301300Z 31004KT 15SM FEW030 04/02 A3005 RMK SC1 SLP179
Loading
Personal Weather Stations






























Interactive Weather Map
Tropical Storm Tracking
New forecast layout! Learn more

10-Day Weather Forecast

Advertisements
Track Severe Weather on mobile